Old Nevada, Nevada
Current Conditions -  °F | °C
As of 12:56 PM on Wednesday 17 Dec 2014 (Local Time) from KHND Reporting Station
Overcast Overcast  
Wind Chill: 52°   Ceiling: 6000
Heat Index: 52°   Visibility: 10mi
Dew Point: 39°   Wind: 0mph
Humidity: 61%   Direction: NA
Pressure: 30.02"   Gusts: NA
Location:  35.8437°N, 115.134°W
Report Text: KHND 172056Z AUTO 00000KT 10SM OVC060 11/04 A3002 RMK AO2 SLP168 T01110039 58015 TSNO
Loading
Personal Weather Stations






























Interactive Weather Map New forecast layout! Learn more

10-Day Weather Forecast

Advertisements
Track Severe Weather on mobile